Stickney, South Dakota
Current Conditions -  °F | °C
As of 7:38 AM on Wednesday 26 Nov 2014 (Local Time) from KMHE Reporting Station
Light Snow Light Snow  
Wind Chill:   Ceiling: 4800
Heat Index: 18°   Visibility: 3mi
Dew Point: 15°   Wind: 25mph
Humidity: 88%   Direction: 340°NNW
Pressure: 30.18"   Gusts: 32mph
Location:  43.59°N, 98.44°W
Report Text: KMHE 261338Z AUTO 34022G28KT 3SM -SN BR SCT013 OVC048 M08/M09 A3018 RMK AO2 PK WND 33034/1326 UPB1255E22SNE1255B05E20B22 P0000 T10781094 $
Loading
Personal Weather Stations






























Interactive Weather Map New forecast layout! Learn more

10-Day Weather Forecast

Advertisements
Track Severe Weather on mobile